sensor_id;sensor_type;location;lat;lon;timestamp;pressure;altitude;pressure_sealevel;temperature;humidity
77770;BME280;66961;51.482;9.160;2024-01-15T00:01:06;97682.44;;;0.05;100.00
77770;BME280;66961;51.482;9.160;2024-01-15T00:03:32;97668.81;;;0.11;100.00
77770;BME280;66961;51.482;9.160;2024-01-15T00:05:57;97667.03;;;0.11;100.00
77770;BME280;66961;51.482;9.160;2024-01-15T00:08:22;97655.94;;;0.09;100.00
77770;BME280;66961;51.482;9.160;2024-01-15T00:10:47;97661.69;;;0.13;100.00
77770;BME280;66961;51.482;9.160;2024-01-15T00:13:13;97657.75;;;0.26;100.00
77770;BME280;66961;51.482;9.160;2024-01-15T00:15:38;97661.31;;;0.25;100.00
77770;BME280;66961;51.482;9.160;2024-01-15T00:18:03;97651.03;;;0.24;100.00
77770;BME280;66961;51.482;9.160;2024-01-15T00:20:29;97659.66;;;0.24;100.00
77770;BME280;66961;51.482;9.160;2024-01-15T00:22:54;97653.78;;;0.22;100.00
77770;BME280;66961;51.482;9.160;2024-01-15T00:25:19;97662.44;;;0.23;100.00
77770;BME280;66961;51.482;9.160;2024-01-15T00:27:44;97673.44;;;0.17;100.00
77770;BME280;66961;51.482;9.160;2024-01-15T00:30:10;97667.03;;;0.11;100.00
77770;BME280;66961;51.482;9.160;2024-01-15T00:32:36;97665.41;;;0.10;100.00
77770;BME280;66961;51.482;9.160;2024-01-15T00:35:01;97661.81;;;0.11;100.00
77770;BME280;66961;51.482;9.160;2024-01-15T00:37:26;97657.97;;;0.15;100.00
77770;BME280;66961;51.482;9.160;2024-01-15T00:39:51;97654.47;;;0.24;100.00
77770;BME280;66961;51.482;9.160;2024-01-15T00:42:17;97664.44;;;0.29;100.00
77770;BME280;66961;51.482;9.160;2024-01-15T00:44:42;97665.63;;;0.35;100.00
77770;BME280;66961;51.482;9.160;2024-01-15T00:47:07;97657.97;;;0.33;100.00
77770;BME280;66961;51.482;9.160;2024-01-15T00:49:32;97673.00;;;0.39;100.00
77770;BME280;66961;51.482;9.160;2024-01-15T00:51:58;97643.88;;;0.44;100.00
77770;BME280;66961;51.482;9.160;2024-01-15T00:54:23;97642.31;;;0.51;100.00
77770;BME280;66961;51.482;9.160;2024-01-15T00:56:48;97634.16;;;0.54;100.00
77770;BME280;66961;51.482;9.160;2024-01-15T00:59:14;97634.31;;;0.52;100.00
77770;BME280;66961;51.482;9.160;2024-01-15T01:01:39;97639.69;;;0.51;99.83
77770;BME280;66961;51.482;9.160;2024-01-15T01:04:04;97611.28;;;0.40;100.00
77770;BME280;66961;51.482;9.160;2024-01-15T01:06:29;97632.69;;;0.51;100.00
77770;BME280;66961;51.482;9.160;2024-01-15T01:08:54;97620.94;;;0.47;100.00
77770;BME280;66961;51.482;9.160;2024-01-15T01:11:20;97641.50;;;0.50;99.31
77770;BME280;66961;51.482;9.160;2024-01-15T01:13:45;97643.44;;;0.48;99.15
77770;BME280;66961;51.482;9.160;2024-01-15T01:16:10;97621.94;;;0.54;98.79
77770;BME280;66961;51.482;9.160;2024-01-15T01:18:36;97616.06;;;0.52;99.24
77770;BME280;66961;51.482;9.160;2024-01-15T01:21:01;97632.53;;;0.53;98.65
77770;BME280;66961;51.482;9.160;2024-01-15T01:23:26;97631.06;;;0.50;99.70
77770;BME280;66961;51.482;9.160;2024-01-15T01:25:51;97626.16;;;0.47;99.70
77770;BME280;66961;51.482;9.160;2024-01-15T01:28:17;97632.19;;;0.48;100.00
77770;BME280;66961;51.482;9.160;2024-01-15T01:30:42;97626.00;;;0.49;99.86
77770;BME280;66961;51.482;9.160;2024-01-15T01:33:07;97646.19;;;0.47;100.00
77770;BME280;66961;51.482;9.160;2024-01-15T01:35:32;97638.06;;;0.50;99.25
77770;BME280;66961;51.482;9.160;2024-01-15T01:37:58;97650.47;;;0.56;97.98
77770;BME280;66961;51.482;9.160;2024-01-15T01:40:23;97655.16;;;0.52;98.75
77770;BME280;66961;51.482;9.160;2024-01-15T01:42:48;97645.88;;;0.50;98.55
77770;BME280;66961;51.482;9.160;2024-01-15T01:45:14;97653.34;;;0.45;100.00
77770;BME280;66961;51.482;9.160;2024-01-15T01:47:39;97654.31;;;0.44;99.86
77770;BME280;66961;51.482;9.160;2024-01-15T01:50:05;97668.31;;;0.43;100.00
77770;BME280;66961;51.482;9.160;2024-01-15T01:52:31;97669.72;;;0.37;100.00
77770;BME280;66961;51.482;9.160;2024-01-15T01:54:56;97676.41;;;0.40;100.00
77770;BME280;66961;51.482;9.160;2024-01-15T01:57:22;97665.69;;;0.43;98.89
77770;BME280;66961;51.482;9.160;2024-01-15T01:59:48;97665.47;;;0.36;100.00
77770;BME280;66961;51.482;9.160;2024-01-15T02:02:13;97660.94;;;0.38;98.60
77770;BME280;66961;51.482;9.160;2024-01-15T02:04:39;97651.63;;;0.36;97.57
77770;BME280;66961;51.482;9.160;2024-01-15T02:07:07;97656.03;;;0.35;97.75
77770;BME280;66961;51.482;9.160;2024-01-15T02:09:32;97667.88;;;0.29;96.95
77770;BME280;66961;51.482;9.160;2024-01-15T02:11:58;97659.00;;;0.22;95.81
77770;BME280;66961;51.482;9.160;2024-01-15T02:14:23;97656.31;;;0.14;97.04
77770;BME280;66961;51.482;9.160;2024-01-15T02:16:48;97658.25;;;0.12;96.61
77770;BME280;66961;51.482;9.160;2024-01-15T02:19:17;97666.50;;;0.08;98.34
77770;BME280;66961;51.482;9.160;2024-01-15T02:21:43;97654.75;;;0.04;97.16
77770;BME280;66961;51.482;9.160;2024-01-15T02:24:09;97661.25;;;-0.01;97.79
77770;BME280;66961;51.482;9.160;2024-01-15T02:26:35;97644.81;;;-0.01;97.92
77770;BME280;66961;51.482;9.160;2024-01-15T02:29:00;97644.63;;;0.00;96.76
77770;BME280;66961;51.482;9.160;2024-01-15T02:31:25;97653.44;;;-0.01;97.79
77770;BME280;66961;51.482;9.160;2024-01-15T02:33:51;97652.16;;;0.04;96.21
77770;BME280;66961;51.482;9.160;2024-01-15T02:36:19;97645.97;;;0.05;95.52
77770;BME280;66961;51.482;9.160;2024-01-15T02:38:44;97627.22;;;0.01;94.70
77770;BME280;66961;51.482;9.160;2024-01-15T02:41:09;97625.09;;;-0.04;94.21
77770;BME280;66961;51.482;9.160;2024-01-15T02:43:35;97646.34;;;-0.08;93.90
77770;BME280;66961;51.482;9.160;2024-01-15T02:46:00;97612.28;;;-0.15;93.79
77770;BME280;66961;51.482;9.160;2024-01-15T02:48:25;97631.09;;;-0.21;93.87
77770;BME280;66961;51.482;9.160;2024-01-15T02:50:50;97638.47;;;-0.16;93.95
77770;BME280;66961;51.482;9.160;2024-01-15T02:53:16;97654.09;;;-0.16;94.30
77770;BME280;66961;51.482;9.160;2024-01-15T02:55:41;97638.31;;;-0.15;93.87
77770;BME280;66961;51.482;9.160;2024-01-15T02:58:07;97634.00;;;-0.06;93.80
77770;BME280;66961;51.482;9.160;2024-01-15T03:00:32;97639.50;;;-0.09;93.35
77770;BME280;66961;51.482;9.160;2024-01-15T03:02:57;97641.31;;;-0.10;93.54
77770;BME280;66961;51.482;9.160;2024-01-15T03:05:22;97626.25;;;-0.16;93.72
77770;BME280;66961;51.482;9.160;2024-01-15T03:07:48;97633.13;;;-0.15;93.21
77770;BME280;66961;51.482;9.160;2024-01-15T03:10:13;97645.00;;;-0.12;92.41
77770;BME280;66961;51.482;9.160;2024-01-15T03:12:38;97638.03;;;-0.12;92.41
77770;BME280;66961;51.482;9.160;2024-01-15T03:15:04;97658.56;;;-0.09;92.50
77770;BME280;66961;51.482;9.160;2024-01-15T03:17:29;97646.66;;;-0.11;92.84
77770;BME280;66961;51.482;9.160;2024-01-15T03:19:55;97654.25;;;0.00;92.35
77770;BME280;66961;51.482;9.160;2024-01-15T03:22:20;97641.44;;;0.07;91.90
77770;BME280;66961;51.482;9.160;2024-01-15T03:24:45;97635.63;;;0.13;91.67
77770;BME280;66961;51.482;9.160;2024-01-15T03:27:10;97628.78;;;0.12;91.68
77770;BME280;66961;51.482;9.160;2024-01-15T03:29:36;97642.19;;;0.17;91.59
77770;BME280;66961;51.482;9.160;2024-01-15T03:32:01;97617.63;;;0.19;91.74
77770;BME280;66961;51.482;9.160;2024-01-15T03:34:26;97643.75;;;0.27;91.07
77770;BME280;66961;51.482;9.160;2024-01-15T03:36:52;97623.19;;;0.24;91.57
77770;BME280;66961;51.482;9.160;2024-01-15T03:39:17;97635.94;;;0.27;91.43
77770;BME280;66961;51.482;9.160;2024-01-15T03:41:42;97630.56;;;0.29;91.43
77770;BME280;66961;51.482;9.160;2024-01-15T03:44:08;97630.78;;;0.36;90.44
77770;BME280;66961;51.482;9.160;2024-01-15T03:46:33;97628.19;;;0.36;90.65
77770;BME280;66961;51.482;9.160;2024-01-15T03:48:58;97627.97;;;0.29;91.25
77770;BME280;66961;51.482;9.160;2024-01-15T03:51:24;97624.38;;;0.30;91.52
77770;BME280;66961;51.482;9.160;2024-01-15T03:53:49;97622.59;;;0.30;91.01
77770;BME280;66961;51.482;9.160;2024-01-15T03:56:15;97629.44;;;0.31;91.24
77770;BME280;66961;51.482;9.160;2024-01-15T03:58:40;97612.47;;;0.27;91.89
77770;BME280;66961;51.482;9.160;2024-01-15T04:01:12;97620.34;;;0.36;91.61
77770;BME280;66961;51.482;9.160;2024-01-15T04:03:37;97628.47;;;0.32;91.71
77770;BME280;66961;51.482;9.160;2024-01-15T04:06:04;97624.91;;;0.33;92.49
77770;BME280;66961;51.482;9.160;2024-01-15T04:08:29;97635.31;;;0.33;91.88
77770;BME280;66961;51.482;9.160;2024-01-15T04:10:55;97619.03;;;0.31;91.83
77770;BME280;66961;51.482;9.160;2024-01-15T04:13:20;97618.88;;;0.33;91.37
77770;BME280;66961;51.482;9.160;2024-01-15T04:15:48;97616.41;;;0.31;91.72
77770;BME280;66961;51.482;9.160;2024-01-15T04:18:15;97621.63;;;0.31;91.80
77770;BME280;66961;51.482;9.160;2024-01-15T04:20:41;97619.19;;;0.30;92.46
77770;BME280;66961;51.482;9.160;2024-01-15T04:23:06;97610.09;;;0.34;91.86
77770;BME280;66961;51.482;9.160;2024-01-15T04:25:31;97610.75;;;0.36;92.02
77770;BME280;66961;51.482;9.160;2024-01-15T04:27:57;97608.66;;;0.40;91.82
77770;BME280;66961;51.482;9.160;2024-01-15T04:30:22;97604.78;;;0.44;91.70
77770;BME280;66961;51.482;9.160;2024-01-15T04:32:47;97611.19;;;0.49;90.61
77770;BME280;66961;51.482;9.160;2024-01-15T04:35:12;97607.13;;;0.55;91.02
77770;BME280;66961;51.482;9.160;2024-01-15T04:37:39;97608.91;;;0.54;91.07
77770;BME280;66961;51.482;9.160;2024-01-15T04:40:04;97600.44;;;0.52;91.34
77770;BME280;66961;51.482;9.160;2024-01-15T04:42:30;97603.09;;;0.60;91.23
77770;BME280;66961;51.482;9.160;2024-01-15T04:44:55;97594.44;;;0.52;91.93
77770;BME280;66961;51.482;9.160;2024-01-15T04:47:20;97586.41;;;0.53;91.60
77770;BME280;66961;51.482;9.160;2024-01-15T04:49:46;97591.00;;;0.51;91.89
77770;BME280;66961;51.482;9.160;2024-01-15T04:52:11;97585.44;;;0.54;91.74
77770;BME280;66961;51.482;9.160;2024-01-15T04:54:36;97591.84;;;0.60;91.69
77770;BME280;66961;51.482;9.160;2024-01-15T04:57:02;97568.69;;;0.57;91.58
77770;BME280;66961;51.482;9.160;2024-01-15T04:59:27;97580.09;;;0.56;91.77
77770;BME280;66961;51.482;9.160;2024-01-15T05:01:52;97576.66;;;0.55;91.38
77770;BME280;66961;51.482;9.160;2024-01-15T05:04:18;97570.31;;;0.58;91.60
77770;BME280;66961;51.482;9.160;2024-01-15T05:06:43;97575.53;;;0.58;91.23
77770;BME280;66961;51.482;9.160;2024-01-15T05:09:08;97573.28;;;0.63;90.97
77770;BME280;66961;51.482;9.160;2024-01-15T05:11:34;97554.59;;;0.68;90.59
77770;BME280;66961;51.482;9.160;2024-01-15T05:13:59;97574.94;;;0.64;90.19
77770;BME280;66961;51.482;9.160;2024-01-15T05:16:24;97570.84;;;0.61;90.64
77770;BME280;66961;51.482;9.160;2024-01-15T05:18:49;97557.97;;;0.60;90.70
77770;BME280;66961;51.482;9.160;2024-01-15T05:21:15;97567.56;;;0.59;92.31
77770;BME280;66961;51.482;9.160;2024-01-15T05:23:40;97556.47;;;0.49;93.97
77770;BME280;66961;51.482;9.160;2024-01-15T05:26:05;97559.66;;;0.43;95.12
77770;BME280;66961;51.482;9.160;2024-01-15T05:28:30;97557.66;;;0.37;95.26
77770;BME280;66961;51.482;9.160;2024-01-15T05:30:56;97558.78;;;0.35;94.92
77770;BME280;66961;51.482;9.160;2024-01-15T05:33:22;97568.25;;;0.36;95.59
77770;BME280;66961;51.482;9.160;2024-01-15T05:35:48;97563.69;;;0.38;95.39
77770;BME280;66961;51.482;9.160;2024-01-15T05:38:13;97563.69;;;0.38;94.86
77770;BME280;66961;51.482;9.160;2024-01-15T05:40:38;97553.28;;;0.38;95.00
77770;BME280;66961;51.482;9.160;2024-01-15T05:43:03;97562.06;;;0.37;95.19
77770;BME280;66961;51.482;9.160;2024-01-15T05:45:30;97558.66;;;0.36;95.35
77770;BME280;66961;51.482;9.160;2024-01-15T05:47:55;97552.56;;;0.27;96.77
77770;BME280;66961;51.482;9.160;2024-01-15T05:50:21;97559.91;;;0.32;96.19
77770;BME280;66961;51.482;9.160;2024-01-15T05:52:46;97553.59;;;0.35;95.15
77770;BME280;66961;51.482;9.160;2024-01-15T05:55:11;97547.25;;;0.37;94.07
77770;BME280;66961;51.482;9.160;2024-01-15T05:57:37;97548.06;;;0.38;93.60
77770;BME280;66961;51.482;9.160;2024-01-15T06:00:03;97546.34;;;0.46;92.92
77770;BME280;66961;51.482;9.160;2024-01-15T06:02:28;97539.03;;;0.50;92.69
77770;BME280;66961;51.482;9.160;2024-01-15T06:04:54;97535.59;;;0.49;92.46
77770;BME280;66961;51.482;9.160;2024-01-15T06:07:19;97537.03;;;0.44;92.52
77770;BME280;66961;51.482;9.160;2024-01-15T06:09:44;97538.22;;;0.49;91.48
77770;BME280;66961;51.482;9.160;2024-01-15T06:12:10;97540.81;;;0.49;91.64
77770;BME280;66961;51.482;9.160;2024-01-15T06:14:35;97536.88;;;0.45;92.46
77770;BME280;66961;51.482;9.160;2024-01-15T06:17:00;97531.69;;;0.53;91.68
77770;BME280;66961;51.482;9.160;2024-01-15T06:19:25;97532.19;;;0.49;91.80
77770;BME280;66961;51.482;9.160;2024-01-15T06:21:50;97542.94;;;0.54;91.83
77770;BME280;66961;51.482;9.160;2024-01-15T06:24:16;97536.41;;;0.50;92.11
77770;BME280;66961;51.482;9.160;2024-01-15T06:26:41;97540.16;;;0.55;92.00
77770;BME280;66961;51.482;9.160;2024-01-15T06:29:06;97534.66;;;0.58;91.33
77770;BME280;66961;51.482;9.160;2024-01-15T06:31:31;97543.59;;;0.56;92.53
77770;BME280;66961;51.482;9.160;2024-01-15T06:33:57;97542.59;;;0.49;93.41
77770;BME280;66961;51.482;9.160;2024-01-15T06:36:23;97542.09;;;0.45;94.26
77770;BME280;66961;51.482;9.160;2024-01-15T06:38:48;97542.69;;;0.39;94.47
77770;BME280;66961;51.482;9.160;2024-01-15T06:41:13;97549.03;;;0.37;95.37
77770;BME280;66961;51.482;9.160;2024-01-15T06:43:39;97551.78;;;0.35;96.82
77770;BME280;66961;51.482;9.160;2024-01-15T06:46:04;97544.22;;;0.24;100.00
77770;BME280;66961;51.482;9.160;2024-01-15T06:48:29;97545.06;;;0.07;100.00
77770;BME280;66961;51.482;9.160;2024-01-15T06:50:54;97552.03;;;-0.02;100.00
77770;BME280;66961;51.482;9.160;2024-01-15T06:53:20;97548.97;;;-0.15;100.00
77770;BME280;66961;51.482;9.160;2024-01-15T06:55:45;97556.34;;;-0.28;100.00
77770;BME280;66961;51.482;9.160;2024-01-15T06:58:10;97554.69;;;-0.29;100.00
77770;BME280;66961;51.482;9.160;2024-01-15T07:00:36;97548.97;;;-0.33;100.00
77770;BME280;66961;51.482;9.160;2024-01-15T07:03:01;97550.75;;;-0.34;100.00
77770;BME280;66961;51.482;9.160;2024-01-15T07:05:26;97545.69;;;-0.35;100.00
77770;BME280;66961;51.482;9.160;2024-01-15T07:07:51;97550.16;;;-0.27;100.00
77770;BME280;66961;51.482;9.160;2024-01-15T07:10:17;97528.16;;;-0.33;100.00
77770;BME280;66961;51.482;9.160;2024-01-15T07:12:42;97548.97;;;-0.15;100.00
77770;BME280;66961;51.482;9.160;2024-01-15T07:15:08;97541.09;;;-0.06;100.00
77770;BME280;66961;51.482;9.160;2024-01-15T07:17:34;97540.94;;;-0.04;100.00
77770;BME280;66961;51.482;9.160;2024-01-15T07:20:01;97539.84;;;0.07;99.63
77770;BME280;66961;51.482;9.160;2024-01-15T07:22:26;97545.53;;;0.02;99.81
77770;BME280;66961;51.482;9.160;2024-01-15T07:24:51;97544.25;;;0.06;98.79
77770;BME280;66961;51.482;9.160;2024-01-15T07:27:16;97550.50;;;0.13;97.90
77770;BME280;66961;51.482;9.160;2024-01-15T07:29:42;97548.63;;;0.23;97.34
77770;BME280;66961;51.482;9.160;2024-01-15T07:32:07;97548.63;;;0.23;97.40
77770;BME280;66961;51.482;9.160;2024-01-15T07:34:32;97541.09;;;0.20;97.26
77770;BME280;66961;51.482;9.160;2024-01-15T07:36:57;97546.81;;;0.24;97.41
77770;BME280;66961;51.482;9.160;2024-01-15T07:39:23;97541.81;;;0.30;96.49
77770;BME280;66961;51.482;9.160;2024-01-15T07:41:48;97547.59;;;0.42;96.03
77770;BME280;66961;51.482;9.160;2024-01-15T07:44:13;97555.44;;;0.42;95.71
77770;BME280;66961;51.482;9.160;2024-01-15T07:46:38;97553.03;;;0.49;95.44
77770;BME280;66961;51.482;9.160;2024-01-15T07:49:04;97547.31;;;0.53;95.89
77770;BME280;66961;51.482;9.160;2024-01-15T07:51:29;97548.97;;;0.54;95.71
77770;BME280;66961;51.482;9.160;2024-01-15T07:53:54;97547.31;;;0.53;96.34
77770;BME280;66961;51.482;9.160;2024-01-15T07:56:19;97542.13;;;0.53;95.31
77770;BME280;66961;51.482;9.160;2024-01-15T07:58:45;97541.81;;;0.56;95.46
77770;BME280;66961;51.482;9.160;2024-01-15T08:01:10;97552.91;;;0.58;94.36
77770;BME280;66961;51.482;9.160;2024-01-15T08:03:35;97557.00;;;0.61;94.95
77770;BME280;66961;51.482;9.160;2024-01-15T08:06:01;97554.75;;;0.66;94.18
77770;BME280;66961;51.482;9.160;2024-01-15T08:08:26;97554.94;;;0.73;93.89
77770;BME280;66961;51.482;9.160;2024-01-15T08:10:54;97562.44;;;0.76;93.99
77770;BME280;66961;51.482;9.160;2024-01-15T08:13:20;97562.81;;;0.81;94.13
77770;BME280;66961;51.482;9.160;2024-01-15T08:15:55;97545.53;;;0.80;94.37
77770;BME280;66961;51.482;9.160;2024-01-15T08:18:20;97561.31;;;0.78;95.38
77770;BME280;66961;51.482;9.160;2024-01-15T08:20:45;97554.44;;;0.69;96.33
77770;BME280;66961;51.482;9.160;2024-01-15T08:23:11;97549.22;;;0.69;97.11
77770;BME280;66961;51.482;9.160;2024-01-15T08:25:36;97551.50;;;0.72;97.67
77770;BME280;66961;51.482;9.160;2024-01-15T08:28:01;97560.16;;;0.73;96.81
77770;BME280;66961;51.482;9.160;2024-01-15T08:30:27;97549.56;;;0.74;97.27
77770;BME280;66961;51.482;9.160;2024-01-15T08:32:52;97548.94;;;0.80;96.38
77770;BME280;66961;51.482;9.160;2024-01-15T08:35:17;97551.88;;;0.77;96.48
77770;BME280;66961;51.482;9.160;2024-01-15T08:37:42;97539.03;;;0.84;97.13
77770;BME280;66961;51.482;9.160;2024-01-15T08:40:08;97550.63;;;0.89;97.35
77770;BME280;66961;51.482;9.160;2024-01-15T08:42:34;97550.44;;;0.83;97.62
77770;BME280;66961;51.482;9.160;2024-01-15T08:44:59;97555.28;;;0.78;97.87
77770;BME280;66961;51.482;9.160;2024-01-15T08:47:24;97555.44;;;0.76;98.44
77770;BME280;66961;51.482;9.160;2024-01-15T08:49:49;97559.38;;;0.80;97.95
77770;BME280;66961;51.482;9.160;2024-01-15T08:52:15;97560.66;;;0.76;97.36
77770;BME280;66961;51.482;9.160;2024-01-15T08:54:40;97571.72;;;0.70;99.80
77770;BME280;66961;51.482;9.160;2024-01-15T08:57:05;97567.03;;;0.48;100.00
77770;BME280;66961;51.482;9.160;2024-01-15T08:59:31;97568.91;;;0.38;100.00
77770;BME280;66961;51.482;9.160;2024-01-15T09:01:56;97569.16;;;0.26;100.00
77770;BME280;66961;51.482;9.160;2024-01-15T09:04:21;97576.09;;;0.18;100.00
77770;BME280;66961;51.482;9.160;2024-01-15T09:06:46;97581.09;;;0.11;100.00
77770;BME280;66961;51.482;9.160;2024-01-15T09:09:12;97574.16;;;0.02;100.00
77770;BME280;66961;51.482;9.160;2024-01-15T09:11:38;97571.88;;;-0.01;100.00
77770;BME280;66961;51.482;9.160;2024-01-15T09:14:03;97567.66;;;-0.02;100.00
77770;BME280;66961;51.482;9.160;2024-01-15T09:16:28;97572.34;;;-0.06;100.00
77770;BME280;66961;51.482;9.160;2024-01-15T09:18:53;97579.34;;;-0.06;100.00
77770;BME280;66961;51.482;9.160;2024-01-15T09:21:20;97579.84;;;-0.03;100.00
77770;BME280;66961;51.482;9.160;2024-01-15T09:23:45;97580.97;;;-0.05;100.00
77770;BME280;66961;51.482;9.160;2024-01-15T09:26:10;97582.75;;;-0.06;100.00
77770;BME280;66961;51.482;9.160;2024-01-15T09:28:35;97582.91;;;-0.07;100.00
77770;BME280;66961;51.482;9.160;2024-01-15T09:31:01;97576.44;;;-0.03;100.00
77770;BME280;66961;51.482;9.160;2024-01-15T09:33:26;97570.09;;;-0.01;100.00
77770;BME280;66961;51.482;9.160;2024-01-15T09:35:51;97562.63;;;0.05;100.00
77770;BME280;66961;51.482;9.160;2024-01-15T09:38:16;97556.72;;;0.20;100.00
77770;BME280;66961;51.482;9.160;2024-01-15T09:40:43;97560.13;;;0.39;100.00
77770;BME280;66961;51.482;9.160;2024-01-15T09:43:10;97560.09;;;0.64;100.00
77770;BME280;66961;51.482;9.160;2024-01-15T09:45:36;97562.66;;;0.82;100.00
77770;BME280;66961;51.482;9.160;2024-01-15T09:48:01;97565.91;;;0.84;100.00
77770;BME280;66961;51.482;9.160;2024-01-15T09:50:27;97566.53;;;0.78;100.00
77770;BME280;66961;51.482;9.160;2024-01-15T09:52:52;97582.28;;;0.69;100.00
77770;BME280;66961;51.482;9.160;2024-01-15T09:55:18;97589.38;;;0.58;100.00
77770;BME280;66961;51.482;9.160;2024-01-15T09:57:44;97578.53;;;0.37;100.00
77770;BME280;66961;51.482;9.160;2024-01-15T10:00:10;97561.19;;;0.28;100.00
77770;BME280;66961;51.482;9.160;2024-01-15T10:02:35;97560.88;;;0.31;100.00
77770;BME280;66961;51.482;9.160;2024-01-15T10:05:01;97565.66;;;0.36;100.00
77770;BME280;66961;51.482;9.160;2024-01-15T10:07:27;97558.69;;;0.44;100.00
77770;BME280;66961;51.482;9.160;2024-01-15T10:09:54;97583.00;;;0.53;100.00
77770;BME280;66961;51.482;9.160;2024-01-15T10:12:21;97571.81;;;0.60;100.00
77770;BME280;66961;51.482;9.160;2024-01-15T10:14:47;97558.16;;;0.66;100.00
77770;BME280;66961;51.482;9.160;2024-01-15T10:17:13;97568.06;;;0.63;100.00
77770;BME280;66961;51.482;9.160;2024-01-15T10:19:39;97553.06;;;0.57;100.00
77770;BME280;66961;51.482;9.160;2024-01-15T10:22:04;97562.81;;;0.55;100.00
77770;BME280;66961;51.482;9.160;2024-01-15T10:24:29;97562.63;;;0.48;100.00
77770;BME280;66961;51.482;9.160;2024-01-15T10:27:09;97557.94;;;0.52;100.00
77770;BME280;66961;51.482;9.160;2024-01-15T10:29:35;97564.88;;;0.43;100.00
77770;BME280;66961;51.482;9.160;2024-01-15T10:32:01;97563.75;;;0.46;100.00
77770;BME280;66961;51.482;9.160;2024-01-15T10:34:26;97551.19;;;0.41;100.00
77770;BME280;66961;51.482;9.160;2024-01-15T10:36:52;97559.16;;;0.40;100.00
77770;BME280;66961;51.482;9.160;2024-01-15T10:39:17;97547.50;;;0.52;100.00
77770;BME280;66961;51.482;9.160;2024-01-15T10:41:42;97549.31;;;0.51;100.00
77770;BME280;66961;51.482;9.160;2024-01-15T10:44:08;97545.53;;;0.46;100.00
77770;BME280;66961;51.482;9.160;2024-01-15T10:46:36;97526.81;;;0.50;100.00
77770;BME280;66961;51.482;9.160;2024-01-15T10:49:02;97525.34;;;0.56;100.00
77770;BME280;66961;51.482;9.160;2024-01-15T10:51:27;97533.47;;;0.53;100.00
77770;BME280;66961;51.482;9.160;2024-01-15T10:53:55;97529.91;;;0.54;100.00
77770;BME280;66961;51.482;9.160;2024-01-15T10:56:21;97526.31;;;0.55;100.00
77770;BME280;66961;51.482;9.160;2024-01-15T10:58:47;97529.44;;;0.58;100.00
77770;BME280;66961;51.482;9.160;2024-01-15T11:01:14;97527.66;;;0.59;100.00
77770;BME280;66961;51.482;9.160;2024-01-15T11:03:39;97526.53;;;0.61;100.00
77770;BME280;66961;51.482;9.160;2024-01-15T11:06:16;97517.06;;;0.60;100.00
77770;BME280;66961;51.482;9.160;2024-01-15T11:08:42;97530.56;;;0.56;100.00
77770;BME280;66961;51.482;9.160;2024-01-15T11:11:07;97518.84;;;0.60;100.00
77770;BME280;66961;51.482;9.160;2024-01-15T11:16:02;97513.81;;;0.58;100.00
77770;BME280;66961;51.482;9.160;2024-01-15T11:19:01;97520.28;;;0.54;100.00
77770;BME280;66961;51.482;9.160;2024-01-15T11:21:28;97529.91;;;0.54;100.00
77770;BME280;66961;51.482;9.160;2024-01-15T11:23:58;97530.53;;;0.48;100.00
77770;BME280;66961;51.482;9.160;2024-01-15T11:28:56;97521.25;;;0.53;100.00
77770;BME280;66961;51.482;9.160;2024-01-15T11:32:13;97523.59;;;0.64;100.00
77770;BME280;66961;51.482;9.160;2024-01-15T11:34:14;97521.56;;;0.76;100.00
77770;BME280;66961;51.482;9.160;2024-01-15T11:41:57;97535.41;;;0.77;100.00
77770;BME280;66961;51.482;9.160;2024-01-15T11:44:23;97527.69;;;0.67;100.00
77770;BME280;66961;51.482;9.160;2024-01-15T11:47:10;97530.34;;;0.75;100.00
77770;BME280;66961;51.482;9.160;2024-01-15T11:52:17;97528.44;;;0.85;100.00
77770;BME280;66961;51.482;9.160;2024-01-15T11:54:50;97528.09;;;0.80;100.00
77770;BME280;66961;51.482;9.160;2024-01-15T11:57:28;97540.69;;;0.93;100.00
77770;BME280;66961;51.482;9.160;2024-01-15T11:59:57;97535.44;;;0.85;100.00
77770;BME280;66961;51.482;9.160;2024-01-15T12:02:22;97537.94;;;0.94;100.00
77770;BME280;66961;51.482;9.160;2024-01-15T12:04:48;97532.72;;;0.94;100.00
77770;BME280;66961;51.482;9.160;2024-01-15T12:07:13;97524.41;;;0.91;100.00
77770;BME280;66961;51.482;9.160;2024-01-15T12:09:43;97516.09;;;0.95;100.00
77770;BME280;66961;51.482;9.160;2024-01-15T12:12:15;97534.31;;;0.87;100.00
77770;BME280;66961;51.482;9.160;2024-01-15T12:14:43;97514.53;;;0.77;100.00
77770;BME280;66961;51.482;9.160;2024-01-15T12:17:08;97521.81;;;0.99;100.00
77770;BME280;66961;51.482;9.160;2024-01-15T12:19:34;97516.13;;;1.04;100.00
77770;BME280;66961;51.482;9.160;2024-01-15T12:21:59;97525.66;;;1.29;100.00
77770;BME280;66961;51.482;9.160;2024-01-15T12:24:24;97518.09;;;1.18;100.00
77770;BME280;66961;51.482;9.160;2024-01-15T12:26:50;97526.44;;;1.21;100.00
77770;BME280;66961;51.482;9.160;2024-01-15T12:29:17;97529.50;;;1.09;100.00
77770;BME280;66961;51.482;9.160;2024-01-15T12:31:46;97545.13;;;1.01;100.00
77770;BME280;66961;51.482;9.160;2024-01-15T12:34:11;97540.69;;;0.93;100.00
77770;BME280;66961;51.482;9.160;2024-01-15T12:36:36;97537.75;;;0.88;100.00
77770;BME280;66961;51.482;9.160;2024-01-15T12:39:02;97539.25;;;0.98;100.00
77770;BME280;66961;51.482;9.160;2024-01-15T12:41:27;97552.47;;;1.05;100.00
77770;BME280;66961;51.482;9.160;2024-01-15T12:43:52;97545.53;;;1.22;100.00
77770;BME280;66961;51.482;9.160;2024-01-15T12:46:18;97547.44;;;1.12;100.00
77770;BME280;66961;51.482;9.160;2024-01-15T12:48:43;97544.31;;;1.00;100.00
77770;BME280;66961;51.482;9.160;2024-01-15T12:51:08;97537.75;;;0.88;100.00
77770;BME280;66961;51.482;9.160;2024-01-15T12:53:33;97551.50;;;0.72;100.00
77770;BME280;66961;51.482;9.160;2024-01-15T12:55:59;97559.19;;;0.74;100.00
77770;BME280;66961;51.482;9.160;2024-01-15T12:58:24;97551.94;;;0.59;100.00
77770;BME280;66961;51.482;9.160;2024-01-15T13:00:49;97537.53;;;0.47;100.00
77770;BME280;66961;51.482;9.160;2024-01-15T13:03:15;97548.88;;;0.38;99.35
77770;BME280;66961;51.482;9.160;2024-01-15T13:05:41;97540.97;;;0.48;95.36
77770;BME280;66961;51.482;9.160;2024-01-15T13:08:06;97543.88;;;0.45;94.23
77770;BME280;66961;51.482;9.160;2024-01-15T13:10:31;97544.25;;;0.50;93.01